Share

Miles City, MT

Wiley (KMLS) Elev 2628 ft | 46.43 °N, 105.88 °W | Change Station

Current weather conditions updated 40 minutes ago

Clear
Clear
63 °F
Feels Like 63 °F
N
20
Wind Variable Wind from NW
Gusts 28 mph
Sunrise 6:07 AM
Sunset 7:57 PM
Moon Waning Gibbous

Tomorrow is forecast to be nearly the same temperature as today.

Pressure 30.06 in
Visibility 10.0 miles
Clouds Clear
Dew Point 14 °F
Humidity 15%
Rainfall 0.00 in
Snow Depth Not available.
UV 1 out of 16
Pollen 10.60 out of 12
Air Quality Not available.
Flu Activity Sporadic
METAR KMLS 210053Z AUTO 31017G24KT 10SM CLR 17/M10 A3005 RMK AO2 PK WND 29027/0002 SLP178 T01721100

More Conditions Fewer Conditions

Pressure 30.06 in
Visibility 10.0 miles
Clouds Clear
Dew Point 14 °F
Humidity 15%
Rainfall 0.00 in
Snow Depth Not available.
UV 1 out of 16
Pollen 10.60 out of 12
Air Quality Not available.
Flu Activity Sporadic
METAR KMLS 210053Z AUTO 31017G24KT 10SM CLR 17/M10 A3005 RMK AO2 PK WND 29027/0002 SLP178 T01721100

More Conditions Fewer Conditions

10-Day Weather Forecast

Almanac

Astronomy

Apr. 20, 2014 Rise Set
Actual Time 6:07 AM MDT 7:57 PM MDT
Civil Twilight 5:35 AM MDT 8:30 PM MDT
Nautical Twilight 4:56 AM MDT 9:09 PM MDT
Astronomical Twilight 4:13 AM MDT 9:52 PM MDT
Moon 12:47 AM MDT (4/20) 10:24 AM MDT (4/20)
Length of Visible Light 14h 54m
Length of Day
13h 50m
Tomorrow will be 3m 6s longer.
Waning Gibbous, 64% of the Moon is Illuminated
Today
Waning Gibbous
Apr 22
Last Quarter
Apr 29
New
May 6
First Quarter
May 14
Full

Today's Extremes

State Highs State Lows

Community

  • Easter Dance
    Easter Dance
  • spring skiing mount Baker WA
    spring skiing mount Baker WA
  • Morning Sun
    Morning Sun
  • Happy Easter
    Happy Easter
  • after rain
    after rain

WunderPhotos

Upload Photos

1,703,505 photos uploaded!

WunderBlogs® & News

Nearby

Snow Depth

Station Depth Elevation
Crystal Lake 54 in 6050 ft
Cole Creek 72 in 7850 ft
Burnt Mountain 23 in 5880 ft
Daisy Peak 48 in 7600 ft
Placer Basin 81 in 8830 ft

Coastal Water Temperatures

Place Temperature
No Stations Reporting

Earthquake Activity

City Distance Mag. Time & Date
No recent earthquake activity has been reported nearby.
Minimum magnitude displayed is 2.5.

Nearby Weather Stations

Station Location Temp. Dew Point Humidity Wind Precip. Elev Updated Type
HADS YELLOWSTONE RIVER AT HIGHWAY BRI MT, Miles City, MT 66 °F - - North  at  - 0.00 in / hr 2333 ft 6:00 PM MDT MADIS

Show More Stations Show Fewer Stations

What do you think?

We're not finished. Please let us know what you like, what you don't like, and what you are still missing.